createdAt,value
2023-04-04T00:01:31.689Z,102464.22
2023-04-04T00:04:03.560Z,102490.25
2023-04-04T00:06:34.899Z,102406.66
2023-04-04T00:09:06.595Z,102375.41
2023-04-04T00:11:38.174Z,102489.66
2023-04-04T00:14:09.699Z,102401.00
2023-04-04T00:16:41.021Z,102448.63
2023-04-04T00:19:18.096Z,102349.06
2023-04-04T00:21:50.282Z,102357.84
2023-04-04T00:24:22.071Z,102443.41
2023-04-04T00:26:53.749Z,102365.28
2023-04-04T00:29:25.328Z,102449.78
2023-04-04T00:31:57.765Z,102388.69
2023-04-04T00:34:29.271Z,102451.13
2023-04-04T00:37:00.588Z,102339.38
2023-04-04T00:39:32.139Z,102442.50
2023-04-04T00:42:04.528Z,102432.63
2023-04-04T00:44:36.483Z,102459.38
2023-04-04T00:47:08.250Z,102390.06
2023-04-04T00:49:39.704Z,102437.69
2023-04-04T00:52:10.996Z,102332.72
2023-04-04T00:54:42.567Z,102440.94
2023-04-04T00:57:14.254Z,102421.22
2023-04-04T00:59:45.843Z,102420.13
2023-04-04T01:02:17.163Z,102401.09
2023-04-04T01:04:48.612Z,102422.56
2023-04-04T01:07:20.012Z,102433.06
2023-04-04T01:09:52.035Z,102406.13
2023-04-04T01:12:23.775Z,102372.22
2023-04-04T01:14:55.338Z,102410.53
2023-04-04T01:17:27.885Z,102411.69
2023-04-04T01:20:05.992Z,102430.63
2023-04-04T01:22:38.834Z,102365.75
2023-04-04T01:25:11.832Z,102411.69
2023-04-04T01:27:43.215Z,102323.94
2023-04-04T01:30:16.350Z,102411.88
2023-04-04T01:33:06.515Z,102433.25
2023-04-04T01:35:58.166Z,102399.50
2023-04-04T01:38:55.727Z,102419.97
2023-04-04T01:41:30.695Z,102384.97
2023-04-04T01:44:03.769Z,102359.19
2023-04-04T01:46:36.954Z,102290.50
2023-04-04T01:49:09.664Z,102400.31
2023-04-04T01:51:42.530Z,102395.72
2023-04-04T01:54:13.934Z,102376.25
2023-04-04T01:56:46.488Z,102396.25
2023-04-04T01:59:17.952Z,102383.88
2023-04-04T02:01:49.335Z,102388.16
2023-04-04T02:04:21.148Z,102327.97
2023-04-04T02:06:52.741Z,102291.19
2023-04-04T02:09:24.180Z,102293.81
2023-04-04T02:11:56.056Z,102377.47
2023-04-04T02:14:27.628Z,102355.31
2023-04-04T02:16:59.521Z,102333.31
2023-04-04T02:19:30.956Z,102367.41
2023-04-04T02:22:02.341Z,102336.81
2023-04-04T02:24:33.702Z,102305.97
2023-04-04T02:27:05.047Z,102372.41
2023-04-04T02:29:36.334Z,102338.41
2023-04-04T02:32:07.660Z,102364.41
2023-04-04T02:34:39.013Z,102364.25
2023-04-04T02:37:10.329Z,102357.25
2023-04-04T02:39:41.666Z,102349.72
2023-04-04T02:42:13.011Z,102359.41
2023-04-04T02:44:44.343Z,102268.50
2023-04-04T02:47:17.060Z,102340.16
2023-04-04T02:49:48.389Z,102301.41
2023-04-04T02:52:21.119Z,102344.47
2023-04-04T02:54:52.854Z,102376.75
2023-04-04T02:57:24.214Z,102347.25
2023-04-04T02:59:55.579Z,102373.81
2023-04-04T03:02:26.952Z,102354.16
2023-04-04T03:04:58.290Z,102334.50
2023-04-04T03:07:29.606Z,102257.38
2023-04-04T03:10:01.444Z,102359.53
2023-04-04T03:12:32.810Z,102357.38
2023-04-04T03:15:05.437Z,102351.34
2023-04-04T03:17:38.771Z,102344.16
2023-04-04T03:20:12.497Z,102257.28
2023-04-04T03:22:43.884Z,102257.19
2023-04-04T03:25:16.107Z,102339.78
2023-04-04T03:27:47.473Z,102250.63
2023-04-04T03:30:18.910Z,102342.34
2023-04-04T03:32:50.892Z,102335.50
2023-04-04T03:35:22.350Z,102354.16
2023-04-04T03:37:54.687Z,102327.53
2023-04-04T03:40:26.100Z,102316.84
2023-04-04T03:42:58.710Z,102317.75
2023-04-04T03:45:34.427Z,102347.16
2023-04-04T03:48:06.130Z,102341.97
2023-04-04T03:50:37.574Z,102339.19
2023-04-04T03:53:09.340Z,102333.00
2023-04-04T03:55:42.255Z,102326.00
2023-04-04T03:58:14.056Z,102343.75
2023-04-04T04:00:45.603Z,102325.09
2023-04-04T04:03:17.419Z,102332.25
2023-04-04T04:05:49.057Z,102334.22
2023-04-04T04:08:20.405Z,102243.06
2023-04-04T04:10:52.272Z,102276.63
2023-04-04T04:13:23.667Z,102309.97
2023-04-04T04:15:56.284Z,102318.69
2023-04-04T04:18:27.656Z,102326.63
2023-04-04T04:21:00.041Z,102320.59
2023-04-04T04:23:31.507Z,102331.38
2023-04-04T04:26:02.875Z,102238.44
2023-04-04T04:28:34.521Z,102259.38
2023-04-04T04:31:10.557Z,102335.53
2023-04-04T04:33:42.037Z,102343.28
2023-04-04T04:36:13.644Z,102320.13
2023-04-04T04:38:45.034Z,102323.72
2023-04-04T04:41:16.901Z,102313.28
2023-04-04T04:43:48.279Z,102277.31
2023-04-04T04:46:19.623Z,102344.34
2023-04-04T04:48:51.386Z,102315.81
2023-04-04T04:51:23.826Z,102340.75
2023-04-04T04:53:55.393Z,102357.06
2023-04-04T04:56:26.742Z,102285.69
2023-04-04T04:58:58.132Z,102344.03
2023-04-04T05:01:29.736Z,102329.69
2023-04-04T05:04:04.534Z,102347.84
2023-04-04T05:06:36.353Z,102308.25
2023-04-04T05:09:07.688Z,102330.66
2023-04-04T05:11:39.241Z,102352.50
2023-04-04T05:14:10.745Z,102279.09
2023-04-04T05:16:43.442Z,102324.22
2023-04-04T05:19:14.804Z,102321.63
2023-04-04T05:21:46.738Z,102349.50
2023-04-04T05:24:18.138Z,102356.19
2023-04-04T05:26:50.578Z,102348.28
2023-04-04T05:29:21.958Z,102351.13
2023-04-04T05:31:53.345Z,102348.75
2023-04-04T05:34:24.698Z,102357.63
2023-04-04T05:36:56.350Z,102353.16
2023-04-04T05:39:29.117Z,102307.53
2023-04-04T05:42:00.576Z,102351.59
2023-04-04T05:44:31.969Z,102358.13
2023-04-04T05:47:03.621Z,102330.09
2023-04-04T05:49:34.985Z,102348.69
2023-04-04T05:52:06.441Z,102341.06
2023-04-04T05:54:37.859Z,102327.44
2023-04-04T05:57:09.288Z,102300.31
2023-04-04T05:59:40.821Z,102343.22
2023-04-04T06:02:12.482Z,102342.50
2023-04-04T06:04:45.345Z,102350.19
2023-04-04T06:07:16.851Z,102311.19
2023-04-04T06:09:48.217Z,102351.72
2023-04-04T06:12:19.811Z,102330.94
2023-04-04T06:14:51.185Z,102341.50
2023-04-04T06:17:23.637Z,102360.28
2023-04-04T06:19:56.594Z,102320.81
2023-04-04T06:22:28.336Z,102331.44
2023-04-04T06:24:59.685Z,102365.13
2023-04-04T06:27:31.004Z,102347.09
2023-04-04T06:30:03.420Z,102372.97
2023-04-04T06:32:35.034Z,102376.50
2023-04-04T06:35:07.310Z,102342.59
2023-04-04T06:37:38.640Z,102373.94
2023-04-04T06:40:10.402Z,102357.06
2023-04-04T06:42:52.449Z,102374.84
2023-04-04T06:45:27.499Z,102350.94
2023-04-04T06:47:59.308Z,102373.50
2023-04-04T06:50:32.409Z,102363.84
2023-04-04T06:53:04.190Z,102335.59
2023-04-04T06:55:36.050Z,102339.06
2023-04-04T06:58:07.411Z,102322.38
2023-04-04T07:00:38.995Z,102350.81
2023-04-04T07:03:10.967Z,102314.81
2023-04-04T07:05:42.973Z,102327.03
2023-04-04T07:08:14.326Z,102357.41
2023-04-04T07:10:46.024Z,102356.31
2023-04-04T07:13:17.591Z,102365.75
2023-04-04T07:15:49.958Z,102363.66
2023-04-04T07:18:21.281Z,102359.09
2023-04-04T07:20:52.600Z,102356.88
2023-04-04T07:23:24.964Z,102364.41
2023-04-04T07:25:56.848Z,102345.97
2023-04-04T07:28:29.168Z,102367.47
2023-04-04T07:31:01.803Z,102328.28
2023-04-04T07:33:33.172Z,102295.13
2023-04-04T07:36:04.974Z,102262.56
2023-04-04T07:38:37.566Z,102342.41
2023-04-04T07:41:09.737Z,102298.03
2023-04-04T07:43:41.253Z,102265.56
2023-04-04T07:46:12.862Z,102307.28
2023-04-04T07:48:44.229Z,102354.94
2023-04-04T07:51:15.596Z,102271.00
2023-04-04T07:53:47.860Z,102299.22
2023-04-04T07:56:19.232Z,102350.47
2023-04-04T07:58:50.670Z,102336.13
2023-04-04T08:01:22.124Z,102328.28
2023-04-04T08:03:54.437Z,102341.16
2023-04-04T08:06:26.136Z,102350.28
2023-04-04T08:08:57.467Z,102332.38
2023-04-04T08:11:28.837Z,102340.38
2023-04-04T08:14:00.158Z,102342.34
2023-04-04T08:16:31.741Z,102275.50
2023-04-04T08:19:04.079Z,102335.91
2023-04-04T08:21:35.475Z,102272.59
2023-04-04T08:24:07.968Z,102339.81
2023-04-04T08:26:40.335Z,102327.00
2023-04-04T08:29:11.760Z,102340.63
2023-04-04T08:31:43.200Z,102340.69
2023-04-04T08:34:15.571Z,102332.06
2023-04-04T08:36:46.936Z,102287.19
2023-04-04T08:39:18.322Z,102323.38
2023-04-04T08:42:01.521Z,102323.38
2023-04-04T08:44:34.774Z,102339.44
2023-04-04T08:47:09.404Z,102312.13
2023-04-04T08:49:44.025Z,102314.06
2023-04-04T08:52:21.744Z,102303.63
2023-04-04T08:54:53.849Z,102323.41
2023-04-04T08:57:25.224Z,102263.91
2023-04-04T08:59:56.910Z,102331.47
2023-04-04T09:02:32.058Z,102335.31
2023-04-04T09:05:06.695Z,102314.03
2023-04-04T09:07:39.849Z,102284.03
2023-04-04T09:10:11.972Z,102338.34
2023-04-04T09:12:47.424Z,102337.34
2023-04-04T09:15:19.087Z,102323.78
2023-04-04T09:17:50.461Z,102295.19
2023-04-04T09:20:44.923Z,102326.19
2023-04-04T09:23:20.088Z,102309.94
2023-04-04T09:28:29.583Z,102309.16
2023-04-04T09:31:03.266Z,102264.84
2023-04-04T09:33:34.803Z,102300.56
2023-04-04T09:36:12.734Z,102316.63
2023-04-04T09:38:45.348Z,102265.69
2023-04-04T09:41:18.751Z,102273.00
2023-04-04T09:43:52.441Z,102311.56
2023-04-04T09:46:25.301Z,102303.66
2023-04-04T09:48:58.422Z,102291.38
2023-04-04T09:51:35.854Z,102227.75
2023-04-04T09:54:18.650Z,102305.38
2023-04-04T09:56:57.936Z,102310.72
2023-04-04T09:59:29.340Z,102223.66
2023-04-04T10:02:02.145Z,102285.91
2023-04-04T10:04:35.451Z,102288.72
2023-04-04T10:07:13.288Z,102219.59
2023-04-04T10:09:50.797Z,102280.75
2023-04-04T10:12:26.109Z,102234.31
2023-04-04T10:14:59.061Z,102256.66
2023-04-04T10:17:41.455Z,102277.09
2023-04-04T10:20:13.641Z,102282.34
2023-04-04T10:22:46.234Z,102232.47
2023-04-04T10:25:17.862Z,102236.03
2023-04-04T10:27:51.354Z,102270.94
2023-04-04T10:30:23.221Z,102255.13
2023-04-04T10:33:08.380Z,102231.34
2023-04-04T10:35:45.574Z,102205.84
2023-04-04T10:38:22.034Z,102253.00
2023-04-04T10:40:56.068Z,102253.00
2023-04-04T10:43:32.629Z,102241.34
2023-04-04T10:46:12.150Z,102260.75
2023-04-04T10:48:44.323Z,102272.09
2023-04-04T10:51:15.923Z,102174.34
2023-04-04T10:53:47.581Z,102254.16
2023-04-04T10:56:19.318Z,102210.69
2023-04-04T10:58:50.907Z,102245.31
2023-04-04T11:01:49.086Z,102261.41
2023-04-04T11:04:28.450Z,102251.81
2023-04-04T11:07:19.086Z,102233.38
2023-04-04T11:10:01.146Z,102206.78
2023-04-04T11:12:38.318Z,102248.56
2023-04-04T11:15:10.780Z,102245.91
2023-04-04T11:17:58.516Z,102231.69
2023-04-04T11:20:34.800Z,102216.56
2023-04-04T11:23:10.622Z,102242.31
2023-04-04T11:25:49.771Z,102216.59
2023-04-04T11:28:27.429Z,102244.91
2023-04-04T11:31:17.555Z,102235.19
2023-04-04T11:34:00.331Z,102150.06
2023-04-04T11:36:41.349Z,102228.19
2023-04-04T11:39:24.583Z,102207.81
2023-04-04T11:42:05.150Z,102164.31
2023-04-04T11:45:02.198Z,102215.78
2023-04-04T11:47:33.757Z,102137.69
2023-04-04T11:50:09.634Z,102202.41
2023-04-04T11:52:42.798Z,102183.84
2023-04-04T11:55:18.987Z,102193.63
2023-04-04T11:57:55.436Z,102192.72
2023-04-04T12:00:39.113Z,102200.69
2023-04-04T12:03:12.338Z,102107.59
2023-04-04T12:05:44.804Z,102153.66
2023-04-04T12:08:17.893Z,102138.50
2023-04-04T12:10:51.494Z,102134.91
2023-04-04T12:13:31.120Z,102176.59
2023-04-04T12:16:02.580Z,102164.25
2023-04-04T12:18:34.047Z,102151.84
2023-04-04T12:21:07.256Z,102168.63
2023-04-04T12:23:38.591Z,102165.03
2023-04-04T12:26:11.330Z,102109.28
2023-04-04T12:28:45.288Z,102150.88
2023-04-04T12:31:17.148Z,102120.59
2023-04-04T12:33:48.528Z,102085.06
2023-04-04T12:36:21.288Z,102150.72
2023-04-04T12:38:58.437Z,102118.03
2023-04-04T12:41:30.406Z,102153.56
2023-04-04T12:44:09.650Z,102057.91
2023-04-04T12:46:42.097Z,102140.38
2023-04-04T12:49:13.986Z,102068.56
2023-04-04T12:51:45.890Z,102135.97
2023-04-04T12:54:28.939Z,102099.59
2023-04-04T12:57:04.370Z,102141.25
2023-04-04T12:59:36.895Z,102050.84
2023-04-04T13:02:12.432Z,102123.56
2023-04-04T13:04:57.692Z,102059.69
2023-04-04T13:07:32.834Z,102042.00
2023-04-04T13:10:05.552Z,102118.19
2023-04-04T13:13:02.415Z,102095.16
2023-04-04T13:15:51.068Z,102112.88
2023-04-04T13:18:24.832Z,102024.25
2023-04-04T13:20:56.459Z,102102.16
2023-04-04T13:23:27.796Z,102093.16
2023-04-04T13:25:59.513Z,102032.81
2023-04-04T13:28:31.242Z,102087.56
2023-04-04T13:31:07.454Z,102082.97
2023-04-04T13:33:38.968Z,102105.88
2023-04-04T13:36:10.646Z,102091.88
2023-04-04T13:38:42.043Z,102103.34
2023-04-04T13:41:13.381Z,102085.66
2023-04-04T13:43:44.707Z,102082.09
2023-04-04T13:46:16.129Z,102093.69
2023-04-04T13:48:47.806Z,102053.91
2023-04-04T13:51:19.463Z,102076.16
2023-04-04T13:53:50.787Z,102006.34
2023-04-04T13:56:23.000Z,102060.41
2023-04-04T13:58:54.856Z,102053.41
2023-04-04T14:01:26.470Z,102045.47
2023-04-04T14:03:57.962Z,102065.88
2023-04-04T14:06:29.341Z,102026.00
2023-04-04T14:09:00.940Z,101995.88
2023-04-04T14:11:34.096Z,102041.09
2023-04-04T14:14:05.436Z,101999.41
2023-04-04T14:16:36.785Z,102036.66
2023-04-04T14:19:08.161Z,102049.06
2023-04-04T14:21:39.588Z,102009.19
2023-04-04T14:24:11.171Z,102047.31
2023-04-04T14:26:42.551Z,102036.69
2023-04-04T14:29:13.957Z,102029.56
2023-04-04T14:31:45.520Z,101949.00
2023-04-04T14:34:16.844Z,102007.44
2023-04-04T14:36:48.725Z,102032.25
2023-04-04T14:39:20.406Z,102017.16
2023-04-04T14:41:51.778Z,102017.16
2023-04-04T14:44:23.146Z,102026.84
2023-04-04T14:46:54.589Z,102002.00
2023-04-04T14:49:26.310Z,101943.47
2023-04-04T14:51:57.625Z,101943.50
2023-04-04T14:54:29.051Z,102011.72
2023-04-04T14:57:02.192Z,102008.16
2023-04-04T14:59:33.753Z,102001.09
2023-04-04T15:02:06.060Z,102007.28
2023-04-04T15:04:37.655Z,102009.91
2023-04-04T15:07:09.365Z,101999.28
2023-04-04T15:09:41.655Z,102012.53
2023-04-04T15:12:12.991Z,101962.00
2023-04-04T15:14:44.301Z,101997.50
2023-04-04T15:17:15.593Z,102007.22
2023-04-04T15:19:46.984Z,102000.16
2023-04-04T15:22:19.768Z,101995.66
2023-04-04T15:24:51.715Z,101983.25
2023-04-04T15:27:23.394Z,101968.19
2023-04-04T15:29:54.870Z,101938.06
2023-04-04T15:32:26.332Z,101930.94
2023-04-04T15:35:00.316Z,101910.59
2023-04-04T15:37:33.121Z,101973.50
2023-04-04T15:40:04.816Z,101995.69
2023-04-04T15:42:36.171Z,101938.03
2023-04-04T15:45:08.326Z,101899.06
2023-04-04T15:47:40.223Z,101919.47
2023-04-04T15:50:12.086Z,101909.78
2023-04-04T15:52:43.429Z,101901.75
2023-04-04T15:55:16.971Z,101889.31
2023-04-04T15:57:48.590Z,101966.41
2023-04-04T16:00:20.149Z,101959.34
2023-04-04T16:02:51.840Z,101978.81
2023-04-04T16:05:23.227Z,101967.25
2023-04-04T16:07:54.518Z,101970.84
2023-04-04T16:10:26.078Z,101967.28
2023-04-04T16:12:57.420Z,101984.09
2023-04-04T16:15:28.915Z,101941.47
2023-04-04T16:18:01.045Z,101956.47
2023-04-04T16:20:32.463Z,101969.75
2023-04-04T16:23:03.877Z,101870.53
2023-04-04T16:25:35.668Z,101955.56
2023-04-04T16:28:07.078Z,101882.03
2023-04-04T16:30:38.560Z,101942.28
2023-04-04T16:33:10.235Z,101866.13
2023-04-04T16:35:41.564Z,101969.78
2023-04-04T16:38:12.930Z,101960.84
2023-04-04T16:40:44.332Z,101954.56
2023-04-04T16:43:15.803Z,101925.22
2023-04-04T16:45:48.222Z,101872.88
2023-04-04T16:48:19.944Z,101954.41
2023-04-04T16:50:51.430Z,101934.78
2023-04-04T16:53:22.753Z,101862.88
2023-04-04T16:55:54.229Z,101954.09
2023-04-04T16:58:26.205Z,101969.94
2023-04-04T17:00:57.758Z,101956.50
2023-04-04T17:03:29.211Z,101953.72
2023-04-04T17:06:01.597Z,101947.34
2023-04-04T17:08:32.920Z,101934.81
2023-04-04T17:11:04.383Z,101902.69
2023-04-04T17:13:35.758Z,101933.63
2023-04-04T17:16:08.252Z,101943.19
2023-04-04T17:18:39.752Z,101948.41
2023-04-04T17:21:11.127Z,101877.31
2023-04-04T17:23:42.463Z,101950.78
2023-04-04T17:26:13.756Z,101943.59
2023-04-04T17:28:45.614Z,101934.56
2023-04-04T17:31:17.511Z,101937.91
2023-04-04T17:33:48.903Z,101916.44
2023-04-04T17:36:20.636Z,101914.50
2023-04-04T17:38:51.960Z,101891.16
2023-04-04T17:41:24.728Z,101920.34
2023-04-04T17:43:56.063Z,101911.31
2023-04-04T17:46:28.914Z,101931.47
2023-04-04T17:49:01.145Z,101908.19
2023-04-04T17:51:33.077Z,101938.22
2023-04-04T17:54:05.769Z,101846.38
2023-04-04T17:56:37.228Z,101863.88
2023-04-04T17:59:08.674Z,101945.50
2023-04-04T18:01:40.641Z,101934.53
2023-04-04T18:04:12.037Z,101935.31
2023-04-04T18:06:43.773Z,101930.50
2023-04-04T18:09:15.180Z,101920.53
2023-04-04T18:11:46.765Z,101921.97
2023-04-04T18:14:18.117Z,101923.47
2023-04-04T18:16:49.585Z,101948.06
2023-04-04T18:19:21.095Z,101938.84
2023-04-04T18:21:54.447Z,101940.47
2023-04-04T18:24:29.576Z,101914.38
2023-04-04T18:27:01.127Z,101941.53
2023-04-04T18:29:32.591Z,101901.31
2023-04-04T18:32:04.374Z,101925.03
2023-04-04T18:34:37.036Z,101944.34
2023-04-04T18:37:08.684Z,101949.34
2023-04-04T18:39:40.277Z,101954.38
2023-04-04T18:42:11.716Z,101846.38
2023-04-04T18:44:43.292Z,101848.78
2023-04-04T18:47:14.634Z,101954.47
2023-04-04T18:49:46.037Z,101939.03
2023-04-04T18:52:17.327Z,101900.41
2023-04-04T18:54:48.759Z,101904.63
2023-04-04T18:57:20.300Z,101936.41
2023-04-04T18:59:51.845Z,101939.69
2023-04-04T19:02:23.204Z,101941.09
2023-04-04T19:04:55.406Z,101912.44
2023-04-04T19:07:27.819Z,101889.09
2023-04-04T19:10:04.639Z,101967.13
2023-04-04T19:12:36.204Z,101957.13
2023-04-04T19:15:07.920Z,101944.63
2023-04-04T19:17:39.960Z,101947.06
2023-04-04T19:20:12.418Z,101947.66
2023-04-04T19:22:43.772Z,101948.22
2023-04-04T19:25:15.419Z,101946.25
2023-04-04T19:27:47.080Z,101953.06
2023-04-04T19:30:54.483Z,101967.09
2023-04-04T19:33:27.510Z,101940.06
2023-04-04T19:36:12.074Z,101932.88
2023-04-04T19:38:48.320Z,101960.13
2023-04-04T19:41:22.202Z,101909.00
2023-04-04T19:43:53.589Z,101945.25
2023-04-04T19:46:28.714Z,101929.09
2023-04-04T19:49:10.261Z,101936.00
2023-04-04T19:51:49.926Z,101851.16
2023-04-04T19:54:29.125Z,101895.66
2023-04-04T19:57:03.635Z,101927.41
2023-04-04T19:59:54.614Z,101954.03
2023-04-04T20:02:36.415Z,101921.72
2023-04-04T20:05:32.182Z,101950.97
2023-04-04T20:08:06.422Z,101925.72
2023-04-04T20:10:41.631Z,101940.81
2023-04-04T20:13:14.040Z,101930.66
2023-04-04T20:15:45.929Z,101957.94
2023-04-04T20:18:25.282Z,101889.22
2023-04-04T20:20:59.152Z,101946.94
2023-04-04T20:23:32.772Z,101950.16
2023-04-04T20:26:08.547Z,101884.03
2023-04-04T20:28:43.678Z,101840.22
2023-04-04T20:31:17.839Z,101947.75
2023-04-04T20:33:50.210Z,101940.25
2023-04-04T20:36:21.842Z,101953.56
2023-04-04T20:38:53.335Z,101948.75
2023-04-04T20:41:25.396Z,101955.81
2023-04-04T20:43:58.687Z,101953.78
2023-04-04T20:46:35.772Z,101930.50
2023-04-04T20:49:07.223Z,101932.84
2023-04-04T20:51:41.870Z,101948.72
2023-04-04T20:54:13.665Z,101887.75
2023-04-04T20:56:47.553Z,101942.09
2023-04-04T20:59:36.682Z,101968.63
2023-04-04T21:02:11.598Z,101960.44
2023-04-04T21:04:45.655Z,101950.38
2023-04-04T21:07:37.182Z,101954.63
2023-04-04T21:10:26.786Z,101976.56
2023-04-04T21:13:00.888Z,101943.53
2023-04-04T21:15:38.513Z,101954.25
2023-04-04T21:18:11.873Z,101932.56
2023-04-04T21:20:46.334Z,101962.91
2023-04-04T21:23:26.554Z,101964.50
2023-04-04T21:26:00.949Z,101869.06
2023-04-04T21:28:33.279Z,101832.63
2023-04-04T21:31:14.066Z,101930.31
2023-04-04T21:33:47.408Z,101841.06
2023-04-04T21:36:24.569Z,101911.16
2023-04-04T21:38:57.236Z,101918.44
2023-04-04T21:41:36.348Z,101828.16
2023-04-04T21:44:09.059Z,101930.81
2023-04-04T21:46:41.550Z,101855.00
2023-04-04T21:49:13.144Z,101901.94
2023-04-04T21:51:44.670Z,101903.94
2023-04-04T21:54:20.387Z,101924.41
2023-04-04T21:56:51.887Z,101913.41
2023-04-04T21:59:23.428Z,101943.66
2023-04-04T22:01:54.908Z,101934.47
2023-04-04T22:04:26.389Z,101828.28
2023-04-04T22:06:58.603Z,101883.41
2023-04-04T22:09:30.213Z,101932.63
2023-04-04T22:12:03.005Z,101852.72
2023-04-04T22:14:34.435Z,101932.31
2023-04-04T22:17:06.124Z,101902.84
2023-04-04T22:19:43.748Z,101902.75
2023-04-04T22:22:15.375Z,101909.69
2023-04-04T22:24:50.890Z,101900.56
2023-04-04T22:27:22.296Z,101895.91
2023-04-04T22:29:53.677Z,101906.34
2023-04-04T22:32:25.281Z,101920.41
2023-04-04T22:34:57.608Z,101887.44
2023-04-04T22:37:29.244Z,101898.84
2023-04-04T22:40:01.772Z,101891.56
2023-04-04T22:42:33.120Z,101878.66
2023-04-04T22:45:04.911Z,101891.13
2023-04-04T22:47:36.243Z,101893.69
2023-04-04T22:50:08.474Z,101900.75
2023-04-04T22:52:43.278Z,101884.75
2023-04-04T22:55:17.604Z,101906.78
2023-04-04T22:57:49.294Z,101805.81
2023-04-04T23:00:21.046Z,101889.59
2023-04-04T23:02:52.444Z,101887.69
2023-04-04T23:05:24.145Z,101872.44
2023-04-04T23:07:55.645Z,101888.34
2023-04-04T23:10:27.448Z,101775.81
2023-04-04T23:13:00.105Z,101900.41
2023-04-04T23:15:35.496Z,101877.75
2023-04-04T23:18:08.363Z,101833.97
2023-04-04T23:20:40.961Z,101774.91
2023-04-04T23:23:12.486Z,101871.00
2023-04-04T23:25:44.700Z,101888.72
2023-04-04T23:28:16.677Z,101893.09
2023-04-04T23:30:48.296Z,101874.13
2023-04-04T23:33:19.600Z,101878.44
2023-04-04T23:35:51.050Z,101878.22
2023-04-04T23:38:23.519Z,101877.09
2023-04-04T23:40:54.943Z,101879.63
2023-04-04T23:43:26.536Z,101868.69
2023-04-04T23:46:00.474Z,101871.28
2023-04-04T23:48:32.432Z,101817.81
2023-04-04T23:51:04.270Z,101875.59
2023-04-04T23:53:35.783Z,101878.28
2023-04-04T23:56:07.407Z,101876.34
2023-04-04T23:58:39.169Z,101874.34
